Terminal Aerodrome Forecast
Issued by NWS Goodland, KS

Home | Current Version | Previous Version | Text Only | Print | Product List | Glossary On
Versions: 1 2 3 4 5 6 7 8 9 10 11 12 13 14 15 16 17 18 19 20 21 22 23
674
FTUS43 KGLD 291741
TAFGLD
TAF
KGLD 291741Z 2918/3018 VRB06KT P6SM BKN120
     FM292100 14008KT P6SM SCT120
     FM300100 14008KT P6SM VCTS SCT060CB
     FM300600 15006KT P6SM SCT120
     FM301000 17006KT 5SM BR BKN010
     FM301500 16007KT P6SM BKN025=

USA.gov is the U.S. government's official web portal to all federal, state and local government web resources and services.